createdAt,value
2018-02-25T00:02:14.924Z,8.55
2018-02-25T00:04:42.429Z,9.02
2018-02-25T00:07:10.006Z,8.77
2018-02-25T00:09:37.478Z,8.68
2018-02-25T00:12:04.960Z,8.73
2018-02-25T00:14:32.477Z,8.60
2018-02-25T00:16:59.958Z,8.10
2018-02-25T00:19:27.429Z,8.98
2018-02-25T00:21:54.910Z,9.23
2018-02-25T00:24:22.413Z,9.32
2018-02-25T00:26:49.900Z,9.63
2018-02-25T00:29:17.406Z,9.10
2018-02-25T00:31:44.885Z,9.38
2018-02-25T00:34:12.477Z,9.65
2018-02-25T00:36:39.956Z,10.18
2018-02-25T00:39:07.425Z,10.10
2018-02-25T00:41:35.751Z,10.18
2018-02-25T00:44:03.432Z,10.35
2018-02-25T00:46:30.915Z,10.30
2018-02-25T00:48:58.462Z,9.88
2018-02-25T00:51:25.926Z,10.35
2018-02-25T00:53:53.414Z,10.15
2018-02-25T00:56:20.905Z,10.40
2018-02-25T00:58:48.491Z,10.70
2018-02-25T01:01:16.042Z,10.95
2018-02-25T01:03:43.773Z,10.85
2018-02-25T01:06:12.018Z,11.18
2018-02-25T01:08:39.533Z,10.38
2018-02-25T01:11:07.037Z,10.43
2018-02-25T01:13:34.522Z,11.15
2018-02-25T01:16:02.048Z,11.63
2018-02-25T01:18:29.537Z,10.85
2018-02-25T01:20:57.011Z,11.00
2018-02-25T01:23:25.267Z,11.32
2018-02-25T01:25:52.736Z,11.05
2018-02-25T01:28:20.324Z,11.45
2018-02-25T01:30:47.820Z,11.38
2018-02-25T01:33:15.304Z,10.77
2018-02-25T01:35:42.883Z,11.43
2018-02-25T01:38:10.357Z,11.88
2018-02-25T01:40:37.841Z,11.88
2018-02-25T01:43:05.317Z,11.98
2018-02-25T01:45:32.810Z,11.73
2018-02-25T01:48:00.292Z,12.50
2018-02-25T01:50:27.811Z,12.05
2018-02-25T01:52:55.402Z,11.80
2018-02-25T01:55:22.877Z,12.57
2018-02-25T01:57:50.353Z,12.20
2018-02-25T02:00:17.837Z,12.23
2018-02-25T02:02:45.360Z,12.02
2018-02-25T02:05:12.934Z,12.80
2018-02-25T02:07:40.417Z,13.00
2018-02-25T02:10:07.912Z,12.18
2018-02-25T02:12:35.403Z,12.20
2018-02-25T02:15:03.341Z,12.30
2018-02-25T02:17:31.701Z,13.00
2018-02-25T02:19:59.169Z,11.75
2018-02-25T02:22:26.653Z,12.82
2018-02-25T02:24:54.135Z,12.23
2018-02-25T02:27:21.660Z,13.15
2018-02-25T02:29:49.139Z,13.32
2018-02-25T02:32:16.619Z,13.55
2018-02-25T02:34:44.102Z,14.13
2018-02-25T02:37:11.586Z,12.07
2018-02-25T02:39:39.141Z,12.98
2018-02-25T02:42:06.709Z,13.05
2018-02-25T02:44:34.200Z,13.80
2018-02-25T02:47:01.671Z,13.43
2018-02-25T02:49:29.250Z,13.15
2018-02-25T02:51:56.765Z,12.80
2018-02-25T02:54:24.359Z,14.02
2018-02-25T02:56:51.836Z,13.60
2018-02-25T02:59:19.331Z,12.48
2018-02-25T03:01:46.806Z,13.52
2018-02-25T03:04:14.439Z,13.32
2018-02-25T03:06:42.685Z,13.30
2018-02-25T03:09:10.312Z,13.15
2018-02-25T03:11:38.551Z,12.85
2018-02-25T03:14:06.082Z,13.48
2018-02-25T03:16:33.567Z,13.45
2018-02-25T03:19:01.164Z,13.18
2018-02-25T03:21:28.643Z,13.57
2018-02-25T03:23:56.219Z,12.57
2018-02-25T03:26:23.758Z,13.27
2018-02-25T03:28:51.230Z,14.35
2018-02-25T03:31:18.770Z,13.07
2018-02-25T03:33:46.257Z,12.98
2018-02-25T03:36:13.832Z,13.70
2018-02-25T03:38:41.416Z,12.93
2018-02-25T03:41:09.270Z,13.45
2018-02-25T03:43:36.741Z,13.35
2018-02-25T03:46:04.237Z,13.00
2018-02-25T03:48:31.709Z,12.37
2018-02-25T03:50:59.234Z,13.70
2018-02-25T03:53:26.729Z,12.98
2018-02-25T03:55:54.318Z,13.45
2018-02-25T03:58:21.798Z,12.88
2018-02-25T04:00:49.382Z,13.15
2018-02-25T04:03:16.857Z,13.40
2018-02-25T04:05:44.336Z,11.85
2018-02-25T04:08:11.810Z,12.45
2018-02-25T04:10:39.306Z,12.50
2018-02-25T04:13:06.776Z,11.77
2018-02-25T04:15:34.250Z,12.48
2018-02-25T04:18:01.731Z,12.85
2018-02-25T04:20:29.245Z,12.98
2018-02-25T04:22:56.821Z,12.52
2018-02-25T04:25:24.290Z,13.05
2018-02-25T04:27:51.767Z,12.95
2018-02-25T04:30:19.255Z,12.70
2018-02-25T04:32:46.769Z,12.65
2018-02-25T04:35:15.006Z,12.88
2018-02-25T04:37:43.268Z,12.50
2018-02-25T04:40:10.745Z,11.93
2018-02-25T04:42:38.282Z,12.50
2018-02-25T04:45:05.768Z,13.52
2018-02-25T04:47:33.262Z,11.65
2018-02-25T04:50:00.823Z,11.10
2018-02-25T04:52:28.416Z,11.85
2018-02-25T04:54:55.892Z,12.32
2018-02-25T04:57:23.371Z,12.37
2018-02-25T04:59:50.886Z,12.37
2018-02-25T05:02:18.457Z,11.80
2018-02-25T05:04:45.932Z,11.80
2018-02-25T05:07:13.423Z,12.02
2018-02-25T05:09:40.903Z,11.98
2018-02-25T05:12:08.389Z,11.30
2018-02-25T05:14:35.866Z,11.40
2018-02-25T05:17:03.356Z,11.27
2018-02-25T05:19:30.842Z,11.93
2018-02-25T05:21:58.420Z,11.05
2018-02-25T05:24:25.902Z,12.20
2018-02-25T05:26:53.392Z,11.07
2018-02-25T05:29:20.870Z,11.07
2018-02-25T05:31:48.348Z,10.88
2018-02-25T05:34:15.842Z,11.88
2018-02-25T05:36:43.320Z,12.25
2018-02-25T05:39:10.824Z,11.10
2018-02-25T05:41:38.314Z,11.77
2018-02-25T05:44:05.791Z,11.90
2018-02-25T05:46:33.280Z,11.57
2018-02-25T05:49:00.773Z,12.10
2018-02-25T05:51:28.287Z,12.02
2018-02-25T05:53:55.872Z,12.23
2018-02-25T05:56:23.406Z,11.45
2018-02-25T05:58:50.881Z,12.55
2018-02-25T06:01:19.121Z,11.88
2018-02-25T06:03:46.650Z,12.55
2018-02-25T06:06:14.282Z,12.15
2018-02-25T06:08:42.545Z,12.50
2018-02-25T06:11:10.037Z,12.43
2018-02-25T06:13:37.572Z,13.15
2018-02-25T06:16:05.105Z,11.90
2018-02-25T06:18:32.790Z,11.90
2018-02-25T06:21:00.397Z,12.25
2018-02-25T06:23:27.882Z,11.85
2018-02-25T06:25:55.444Z,12.63
2018-02-25T06:28:23.028Z,11.88
2018-02-25T06:30:50.501Z,12.48
2018-02-25T06:33:17.998Z,11.77
2018-02-25T06:35:45.659Z,12.15
2018-02-25T06:38:13.242Z,12.30
2018-02-25T06:40:40.717Z,12.25
2018-02-25T06:43:08.261Z,12.05
2018-02-25T06:45:35.756Z,12.65
2018-02-25T06:48:03.344Z,11.73
2018-02-25T06:50:30.840Z,12.98
2018-02-25T06:52:58.351Z,11.98
2018-02-25T06:55:27.367Z,11.82
2018-02-25T06:57:55.036Z,12.37
2018-02-25T07:00:22.542Z,12.35
2018-02-25T07:02:50.863Z,12.70
2018-02-25T07:05:20.192Z,14.10
2018-02-25T07:07:47.745Z,11.70
2018-02-25T07:10:15.206Z,12.10
2018-02-25T07:12:43.610Z,12.65
2018-02-25T07:15:11.107Z,12.65
2018-02-25T07:17:39.989Z,12.25
2018-02-25T07:20:07.489Z,12.82
2018-02-25T07:22:35.001Z,12.30
2018-02-25T07:25:02.658Z,11.27
2018-02-25T07:27:30.904Z,11.88
2018-02-25T07:29:58.391Z,12.65
2018-02-25T07:32:25.978Z,11.98
2018-02-25T07:34:53.476Z,11.82
2018-02-25T07:37:21.731Z,11.55
2018-02-25T07:39:50.070Z,10.73
2018-02-25T07:42:17.626Z,11.25
2018-02-25T07:44:45.071Z,10.30
2018-02-25T07:47:13.325Z,10.77
2018-02-25T07:49:40.878Z,9.82
2018-02-25T07:52:08.377Z,10.07
2018-02-25T07:54:35.910Z,9.87
2018-02-25T07:57:03.383Z,10.73
2018-02-25T07:59:30.876Z,10.47
2018-02-25T08:01:58.462Z,10.83
2018-02-25T08:04:25.939Z,9.40
2018-02-25T08:06:53.415Z,11.47
2018-02-25T08:09:20.977Z,11.00
2018-02-25T08:11:48.540Z,10.60
2018-02-25T08:14:16.774Z,11.73
2018-02-25T08:16:44.286Z,11.07
2018-02-25T08:19:12.633Z,11.97
2018-02-25T08:21:40.894Z,13.10
2018-02-25T08:24:08.512Z,11.97
2018-02-25T08:26:36.077Z,11.53
2018-02-25T08:29:03.623Z,12.37
2018-02-25T08:31:31.115Z,11.13
2018-02-25T08:33:58.593Z,12.10
2018-02-25T08:36:26.060Z,11.60
2018-02-25T08:38:54.301Z,11.77
2018-02-25T08:41:21.774Z,11.40
2018-02-25T08:43:50.001Z,9.93
2018-02-25T08:46:18.245Z,10.90
2018-02-25T08:48:45.711Z,11.00
2018-02-25T08:51:13.952Z,10.30
2018-02-25T08:53:43.123Z,10.40
2018-02-25T08:56:11.399Z,10.00
2018-02-25T08:58:38.924Z,10.40
2018-02-25T09:01:06.387Z,9.63
2018-02-25T09:03:33.867Z,9.33
2018-02-25T09:06:01.338Z,8.37
2018-02-25T09:08:28.855Z,9.30
2018-02-25T09:10:56.348Z,9.57
2018-02-25T09:13:23.835Z,8.23
2018-02-25T09:15:51.370Z,8.50
2018-02-25T09:18:19.664Z,7.73
2018-02-25T09:20:47.201Z,7.77
2018-02-25T09:23:14.748Z,7.80
2018-02-25T09:25:43.118Z,7.00
2018-02-25T09:28:10.618Z,7.50
2018-02-25T09:30:38.128Z,6.80
2018-02-25T09:33:06.420Z,6.43
2018-02-25T09:35:34.706Z,5.97
2018-02-25T09:38:02.318Z,6.00
2018-02-25T09:40:29.884Z,6.60
2018-02-25T09:42:57.450Z,6.13
2018-02-25T09:45:25.087Z,6.17
2018-02-25T09:47:52.574Z,6.20
2018-02-25T09:50:20.144Z,6.37
2018-02-25T09:52:48.478Z,6.33
2018-02-25T09:55:17.583Z,6.63
2018-02-25T09:57:45.056Z,5.87
2018-02-25T10:00:12.532Z,6.20
2018-02-25T10:02:40.051Z,5.60
2018-02-25T10:05:07.638Z,6.17
2018-02-25T10:07:35.226Z,5.97
2018-02-25T10:10:02.716Z,5.67
2018-02-25T10:12:30.224Z,5.67
2018-02-25T10:14:57.714Z,5.70
2018-02-25T10:17:25.260Z,5.63
2018-02-25T10:19:53.489Z,5.57
2018-02-25T10:22:21.014Z,5.73
2018-02-25T10:24:48.483Z,5.40
2018-02-25T10:27:15.967Z,5.83
2018-02-25T10:29:44.326Z,5.83
2018-02-25T10:32:12.578Z,5.57
2018-02-25T10:34:40.089Z,6.50
2018-02-25T10:37:07.606Z,5.73
2018-02-25T10:39:35.847Z,5.70
2018-02-25T10:42:03.337Z,5.90
2018-02-25T10:44:30.825Z,5.40
2018-02-25T10:46:58.336Z,5.10
2018-02-25T10:49:25.950Z,5.40
2018-02-25T10:51:54.196Z,5.50
2018-02-25T10:54:21.690Z,5.90
2018-02-25T10:56:49.163Z,5.90
2018-02-25T10:59:16.674Z,6.03
2018-02-25T11:01:44.186Z,5.33
2018-02-25T11:04:11.703Z,5.53
2018-02-25T11:06:39.946Z,5.23
2018-02-25T11:09:07.480Z,5.60
2018-02-25T11:11:35.755Z,5.73
2018-02-25T11:14:03.261Z,5.40
2018-02-25T11:16:30.776Z,5.73
2018-02-25T11:18:58.363Z,6.10
2018-02-25T11:21:25.885Z,5.27
2018-02-25T11:23:54.129Z,5.60
2018-02-25T11:26:21.630Z,5.90
2018-02-25T11:28:49.126Z,5.47
2018-02-25T11:31:16.609Z,5.90
2018-02-25T11:33:44.090Z,5.40
2018-02-25T11:36:11.589Z,5.10
2018-02-25T11:38:39.129Z,5.67
2018-02-25T11:41:07.495Z,5.17
2018-02-25T11:43:36.491Z,5.83
2018-02-25T11:46:04.025Z,5.47
2018-02-25T11:48:32.779Z,4.80
2018-02-25T11:51:01.146Z,5.33
2018-02-25T11:53:28.817Z,5.60
2018-02-25T11:55:56.366Z,5.47
2018-02-25T11:58:23.961Z,5.33
2018-02-25T12:00:51.509Z,5.83
2018-02-25T12:03:20.555Z,5.23
2018-02-25T12:05:48.079Z,4.87
2018-02-25T12:08:15.689Z,5.23
2018-02-25T12:10:43.158Z,5.20
2018-02-25T12:13:10.655Z,5.20
2018-02-25T12:15:38.908Z,4.53
2018-02-25T12:18:06.457Z,5.03
2018-02-25T12:20:33.992Z,5.90
2018-02-25T12:23:01.427Z,5.33
2018-02-25T12:25:28.910Z,5.10
2018-02-25T12:27:56.458Z,5.43
2018-02-25T12:30:23.962Z,4.80
2018-02-25T12:32:51.555Z,5.73
2018-02-25T12:35:19.124Z,5.37
2018-02-25T12:37:47.374Z,5.57
2018-02-25T12:40:14.935Z,6.47
2018-02-25T12:42:42.410Z,4.80
2018-02-25T12:45:09.897Z,5.20
2018-02-25T12:47:37.731Z,5.73
2018-02-25T12:50:05.210Z,5.27
2018-02-25T12:52:32.709Z,4.97
2018-02-25T12:55:00.184Z,5.57
2018-02-25T12:57:27.647Z,5.13
2018-02-25T12:59:55.132Z,5.10
2018-02-25T13:02:22.604Z,4.90
2018-02-25T13:04:50.879Z,4.80
2018-02-25T13:07:18.500Z,5.20
2018-02-25T13:09:45.986Z,4.80
2018-02-25T13:12:13.528Z,5.20
2018-02-25T13:14:41.027Z,5.30
2018-02-25T13:17:08.568Z,6.87
2018-02-25T13:19:36.844Z,7.60
2018-02-25T13:22:04.320Z,5.33
2018-02-25T13:24:31.821Z,5.20
2018-02-25T13:26:59.491Z,5.03
2018-02-25T13:29:27.107Z,4.70
2018-02-25T13:31:55.398Z,5.00
2018-02-25T13:34:22.904Z,5.43
2018-02-25T13:36:50.407Z,5.13
2018-02-25T13:39:17.966Z,5.17
2018-02-25T13:41:45.451Z,5.47
2018-02-25T13:44:13.009Z,4.60
2018-02-25T13:46:40.720Z,5.30
2018-02-25T13:49:08.293Z,5.87
2018-02-25T13:51:36.547Z,4.97
2018-02-25T13:54:04.012Z,5.10
2018-02-25T13:56:31.570Z,5.40
2018-02-25T13:58:59.796Z,4.73
2018-02-25T14:01:28.105Z,6.17
2018-02-25T14:03:55.637Z,5.93
2018-02-25T14:06:23.886Z,6.83
2018-02-25T14:08:51.355Z,5.30
2018-02-25T14:11:20.508Z,5.27
2018-02-25T14:13:47.981Z,5.17
2018-02-25T14:16:15.443Z,4.90
2018-02-25T14:18:42.919Z,5.00
2018-02-25T14:21:10.746Z,5.23
2018-02-25T14:23:38.321Z,4.27
2018-02-25T14:26:05.872Z,5.77
2018-02-25T14:28:33.397Z,6.50
2018-02-25T14:31:01.645Z,8.47
2018-02-25T14:33:29.913Z,5.07
2018-02-25T14:35:57.384Z,5.30
2018-02-25T14:38:24.857Z,5.43
2018-02-25T14:40:52.325Z,5.97
2018-02-25T14:43:19.787Z,4.93
2018-02-25T14:45:47.319Z,5.00
2018-02-25T14:48:14.831Z,4.73
2018-02-25T14:50:42.400Z,4.93
2018-02-25T14:53:09.997Z,5.47
2018-02-25T14:55:37.478Z,4.90
2018-02-25T14:58:04.946Z,5.33
2018-02-25T15:00:32.453Z,4.93
2018-02-25T15:02:59.953Z,4.87
2018-02-25T15:05:27.427Z,4.60
2018-02-25T15:07:54.900Z,4.57
2018-02-25T15:10:22.366Z,5.97
2018-02-25T15:12:50.775Z,5.20
2018-02-25T15:15:18.462Z,4.50
2018-02-25T15:17:46.735Z,4.83
2018-02-25T15:20:14.271Z,4.73
2018-02-25T15:22:41.796Z,4.03
2018-02-25T15:25:09.307Z,5.57
2018-02-25T15:27:37.577Z,5.87
2018-02-25T15:30:05.112Z,10.10
2018-02-25T15:32:32.599Z,5.30
2018-02-25T15:35:00.127Z,4.67
2018-02-25T15:37:27.570Z,4.67
2018-02-25T15:39:55.071Z,5.00
2018-02-25T15:42:22.566Z,6.00
2018-02-25T15:44:50.159Z,4.53
2018-02-25T15:47:17.672Z,5.23
2018-02-25T15:49:45.662Z,4.97
2018-02-25T15:52:13.324Z,5.33
2018-02-25T15:54:40.907Z,4.57
2018-02-25T15:57:08.511Z,6.10
2018-02-25T15:59:35.992Z,6.53
2018-02-25T16:02:03.623Z,5.47
2018-02-25T16:04:31.190Z,5.13
2018-02-25T16:06:58.672Z,5.30
2018-02-25T16:09:26.149Z,5.00
2018-02-25T16:11:53.660Z,4.90
2018-02-25T16:14:21.150Z,4.80
2018-02-25T16:16:48.648Z,5.10
2018-02-25T16:19:16.916Z,5.30
2018-02-25T16:21:44.465Z,6.50
2018-02-25T16:24:12.026Z,5.83
2018-02-25T16:26:40.695Z,5.03
2018-02-25T16:29:08.191Z,5.30
2018-02-25T16:31:35.679Z,6.27
2018-02-25T16:34:03.171Z,5.70
2018-02-25T16:36:30.646Z,5.10
2018-02-25T16:38:58.325Z,4.87
2018-02-25T16:41:25.802Z,4.90
2018-02-25T16:43:53.339Z,5.03
2018-02-25T16:46:20.812Z,5.77
2018-02-25T16:48:48.329Z,5.33
2018-02-25T16:51:15.821Z,5.33
2018-02-25T16:53:43.505Z,6.03
2018-02-25T16:56:11.742Z,5.57
2018-02-25T16:58:39.254Z,5.60
2018-02-25T17:01:06.725Z,4.87
2018-02-25T17:03:34.199Z,7.20
2018-02-25T17:06:02.475Z,6.23
2018-02-25T17:08:29.964Z,5.37
2018-02-25T17:10:57.456Z,5.23
2018-02-25T17:13:25.744Z,5.57
2018-02-25T17:15:53.390Z,5.87
2018-02-25T17:18:20.891Z,5.43
2018-02-25T17:20:48.405Z,5.70
2018-02-25T17:23:15.918Z,5.83
2018-02-25T17:25:43.550Z,5.30
2018-02-25T17:28:11.019Z,5.80
2018-02-25T17:30:38.624Z,5.57
2018-02-25T17:33:06.253Z,5.23
2018-02-25T17:35:34.568Z,5.57
2018-02-25T17:38:02.132Z,5.73
2018-02-25T17:40:29.657Z,4.93
2018-02-25T17:42:57.231Z,5.35
2018-02-25T17:45:24.703Z,4.90
2018-02-25T17:47:52.182Z,4.57
2018-02-25T17:50:19.732Z,4.72
2018-02-25T17:52:48.032Z,5.55
2018-02-25T17:55:24.375Z,6.00
2018-02-25T17:57:43.206Z,5.32
2018-02-25T18:00:11.478Z,5.05
2018-02-25T18:02:38.948Z,5.33
2018-02-25T18:05:06.450Z,4.90
2018-02-25T18:07:34.069Z,5.30
2018-02-25T18:10:02.342Z,4.25
2018-02-25T18:12:29.851Z,4.82
2018-02-25T18:14:57.380Z,4.97
2018-02-25T18:17:24.905Z,5.47
2018-02-25T18:19:52.438Z,4.90
2018-02-25T18:22:20.723Z,4.70
2018-02-25T18:24:48.315Z,4.45
2018-02-25T18:27:15.856Z,4.53
2018-02-25T18:29:43.348Z,5.28
2018-02-25T18:32:10.921Z,4.53
2018-02-25T18:34:39.170Z,4.50
2018-02-25T18:37:06.646Z,4.43
2018-02-25T18:39:34.419Z,4.37
2018-02-25T18:42:01.976Z,4.95
2018-02-25T18:44:29.468Z,4.90
2018-02-25T18:46:57.055Z,4.60
2018-02-25T18:49:25.436Z,4.57
2018-02-25T18:51:53.040Z,5.13
2018-02-25T18:54:20.526Z,5.10
2018-02-25T18:56:48.104Z,4.37
2018-02-25T18:59:17.291Z,5.23
2018-02-25T19:01:44.807Z,5.40
2018-02-25T19:04:12.347Z,5.17
2018-02-25T19:06:39.950Z,5.45
2018-02-25T19:09:07.519Z,4.97
2018-02-25T19:11:35.781Z,5.15
2018-02-25T19:14:03.266Z,4.50
2018-02-25T19:16:30.769Z,5.10
2018-02-25T19:18:58.331Z,4.82
2018-02-25T19:21:25.921Z,4.78
2018-02-25T19:23:53.632Z,4.80
2018-02-25T19:26:21.198Z,4.97
2018-02-25T19:28:48.867Z,6.25
2018-02-25T19:31:17.193Z,4.55
2018-02-25T19:33:44.724Z,4.40
2018-02-25T19:36:18.051Z,4.05
2018-02-25T19:38:51.300Z,4.40
2018-02-25T19:41:25.321Z,4.28
2018-02-25T19:43:52.793Z,4.43
2018-02-25T19:46:20.387Z,4.20
2018-02-25T19:48:47.880Z,4.57
2018-02-25T19:51:15.501Z,4.47
2018-02-25T19:53:43.805Z,3.97
2018-02-25T19:56:12.145Z,4.90
2018-02-25T20:05:49.523Z,4.00
2018-02-25T20:08:17.033Z,3.97
2018-02-25T20:10:45.045Z,3.78
2018-02-25T20:13:12.512Z,4.25
2018-02-25T20:15:40.003Z,4.30
2018-02-25T20:18:07.469Z,4.07
2018-02-25T20:20:34.938Z,3.53
2018-02-25T20:23:02.562Z,4.18
2018-02-25T20:25:30.236Z,4.43
2018-02-25T20:27:57.891Z,4.65
2018-02-25T20:30:25.381Z,5.25
2018-02-25T20:32:52.960Z,5.97
2018-02-25T20:35:20.509Z,6.47
2018-02-25T20:37:48.071Z,4.95
2018-02-25T20:40:15.560Z,6.57
2018-02-25T20:42:43.037Z,5.20
2018-02-25T20:45:10.592Z,6.43
2018-02-25T20:47:38.110Z,6.85
2018-02-25T20:50:05.586Z,5.97
2018-02-25T20:52:33.175Z,7.90
2018-02-25T20:55:00.655Z,5.95
2018-02-25T20:57:28.183Z,5.47
2018-02-25T20:59:55.778Z,4.97
2018-02-25T21:02:23.255Z,5.45
2018-02-25T21:04:51.503Z,4.93
2018-02-25T21:07:19.065Z,5.12
2018-02-25T21:09:46.605Z,5.62
2018-02-25T21:12:14.293Z,4.93
2018-02-25T21:14:41.929Z,5.30
2018-02-25T21:17:10.271Z,5.22
2018-02-25T21:19:37.735Z,5.22
2018-02-25T21:22:05.439Z,4.70
2018-02-25T21:24:32.951Z,5.05
2018-02-25T21:27:01.206Z,5.00
2018-02-25T21:36:18.811Z,5.00
2018-02-25T21:38:47.152Z,5.75
2018-02-25T21:41:14.633Z,5.72
2018-02-25T21:43:42.155Z,5.20
2018-02-25T21:46:09.675Z,5.75
2018-02-25T21:48:37.164Z,5.40
2018-02-25T21:51:04.730Z,5.30
2018-02-25T21:53:38.023Z,6.05
2018-02-25T21:56:11.175Z,5.53
2018-02-25T21:58:44.454Z,5.53
2018-02-25T22:01:18.428Z,5.55
2018-02-25T22:03:45.935Z,5.97
2018-02-25T22:06:13.483Z,5.62
2018-02-25T22:08:41.745Z,5.90
2018-02-25T22:11:09.382Z,6.68
2018-02-25T22:13:36.898Z,6.68
2018-02-25T22:16:04.399Z,6.25
2018-02-25T22:18:31.914Z,5.65
2018-02-25T22:20:59.392Z,6.22
2018-02-25T22:23:26.928Z,5.55
2018-02-25T22:25:55.249Z,6.18
2018-02-25T22:28:22.738Z,6.62
2018-02-25T22:30:50.200Z,5.62
2018-02-25T22:33:17.695Z,6.12
2018-02-25T22:35:45.282Z,5.95
2018-02-25T22:38:13.727Z,6.20
2018-02-25T22:40:41.196Z,6.32
2018-02-25T22:43:08.676Z,5.57
2018-02-25T22:45:36.152Z,5.75
2018-02-25T22:48:03.622Z,6.32
2018-02-25T22:50:31.868Z,7.03
2018-02-25T22:52:59.398Z,6.47
2018-02-25T22:55:27.628Z,6.43
2018-02-25T22:57:55.102Z,6.18
2018-02-25T23:00:22.581Z,6.28
2018-02-25T23:02:50.087Z,6.60
2018-02-25T23:05:17.610Z,6.05
2018-02-25T23:07:45.856Z,6.62
2018-02-25T23:10:13.342Z,6.22
2018-02-25T23:12:40.822Z,6.47
2018-02-25T23:15:08.339Z,6.00
2018-02-25T23:17:35.833Z,5.87
2018-02-25T23:20:03.469Z,5.57
2018-02-25T23:22:31.002Z,6.35
2018-02-25T23:24:58.465Z,5.43
2018-02-25T23:27:25.947Z,6.00
2018-02-25T23:29:53.410Z,5.75
2018-02-25T23:32:20.963Z,5.90
2018-02-25T23:34:48.446Z,6.45
2018-02-25T23:37:15.970Z,6.25
2018-02-25T23:39:44.239Z,6.00
2018-02-25T23:42:11.744Z,6.50
2018-02-25T23:44:39.264Z,12.18
2018-02-25T23:47:06.815Z,6.18
2018-02-25T23:49:34.288Z,6.28
2018-02-25T23:52:01.816Z,5.60
2018-02-25T23:54:30.068Z,5.90
2018-02-25T23:56:57.549Z,6.37
2018-02-25T23:59:25.040Z,5.70
